Terminal Aerodrome Forecast
Issued by NWS

Home | Current Version | Previous Version | Text Only | Print | Product List | Glossary On
Versions: 1 2 3 4 5 6 7 8 9 10 11 12 13 14 15 16 17 18 19 20 21 22 23
000
FTUS41 KPBZ 181700
TAFLBE
TAF
KLBE 181730Z 1818/1918 26008KT 4SM -SN BR OVC020
     FM182200 28006KT P6SM OVC015
     FM190400 27008KT 4SM -SN OVC010
     FM191100 27008KT P6SM OVC015=

USA.gov is the U.S. government's official web portal to all federal, state and local government web resources and services.